WMT101 EGKK-EGBB
Flight info
| Callsign | WMT101 |
|---|---|
| Flight time | N/A |
| Altitude | 16000 |
| Route | LAM L610 HEMEL |
| Aircraft | A21N/M-SDE2E3FGHIRWXY/LB1 |
Departure
| Time | 2026-05-05 20:01 |
|---|---|
| Airport | London Gatwick Airport (EGKK) |
Arrival
| Time | N/A |
|---|---|
| Airport | Birmingham Airport (EGBB) |
| Time | Latitude | Longitude | Altitude | Speed | Heading |
|---|---|---|---|---|---|
| 2026-05-05 19:25 | 51.15802 | -0.17745 | 196 ft | 0 kts | 348° |
| 2026-05-05 19:42 | 51.15792 | -0.17724 | 196 ft | 0 kts | 337° |
| 2026-05-05 19:42 | 51.15778 | -0.17706 | 196 ft | 5 kts | 331° |
| 2026-05-05 19:43 | 51.15796 | -0.17674 | 196 ft | 0 kts | 202° |
| 2026-05-05 19:43 | 51.15795 | -0.17686 | 196 ft | 1 kts | 94° |
| 2026-05-05 19:43 | 51.15776 | -0.17681 | 196 ft | 3 kts | 354° |
| 2026-05-05 19:43 | 51.15776 | -0.17692 | 196 ft | 3 kts | 99° |
| 2026-05-05 19:44 | 51.15772 | -0.17698 | 196 ft | 2 kts | 353° |
| 2026-05-05 19:44 | 51.15790 | -0.17711 | 196 ft | 2 kts | 323° |
| 2026-05-05 19:44 | 51.15794 | -0.17716 | 196 ft | 0 kts | 320° |
| 2026-05-05 19:46 | 51.15797 | -0.17720 | 196 ft | 1 kts | 321° |
| 2026-05-05 19:46 | 51.15803 | -0.17727 | 196 ft | 0 kts | 322° |
| 2026-05-05 19:47 | 51.15800 | -0.17740 | 196 ft | 2 kts | 208° |
| 2026-05-05 19:47 | 51.15768 | -0.17736 | 196 ft | 6 kts | 168° |
| 2026-05-05 19:47 | 51.15745 | -0.17731 | 196 ft | 2 kts | 191° |
| 2026-05-05 19:48 | 51.15740 | -0.17737 | 196 ft | 0 kts | 229° |
| 2026-05-05 19:49 | 51.15725 | -0.17776 | 195 ft | 7 kts | 249° |
| 2026-05-05 19:49 | 51.15709 | -0.17883 | 193 ft | 12 kts | 258° |
| 2026-05-05 19:50 | 51.15691 | -0.18012 | 192 ft | 12 kts | 258° |
| 2026-05-05 19:50 | 51.15674 | -0.18136 | 190 ft | 10 kts | 258° |
| 2026-05-05 19:50 | 51.15662 | -0.18232 | 189 ft | 5 kts | 259° |
| 2026-05-05 19:50 | 51.15653 | -0.18297 | 190 ft | 6 kts | 251° |
| 2026-05-05 19:51 | 51.15623 | -0.18343 | 190 ft | 6 kts | 197° |
| 2026-05-05 19:51 | 51.15570 | -0.18341 | 191 ft | 8 kts | 173° |
| 2026-05-05 19:51 | 51.15504 | -0.18321 | 192 ft | 10 kts | 168° |
| 2026-05-05 19:51 | 51.15474 | -0.18310 | 193 ft | 0 kts | 168° |
| 2026-05-05 19:52 | 51.15375 | -0.18278 | 193 ft | 44 kts | 169° |
| 2026-05-05 19:52 | 51.15158 | -0.18211 | 194 ft | 13 kts | 165° |
| 2026-05-05 19:52 | 51.15106 | -0.18260 | 196 ft | 9 kts | 251° |
| 2026-05-05 19:52 | 51.15083 | -0.18403 | 196 ft | 20 kts | 258° |
| 2026-05-05 19:53 | 51.15054 | -0.18626 | 196 ft | 20 kts | 257° |
| 2026-05-05 19:53 | 51.15022 | -0.18853 | 196 ft | 21 kts | 258° |
| 2026-05-05 19:53 | 51.14991 | -0.19083 | 196 ft | 21 kts | 258° |
| 2026-05-05 19:53 | 51.15019 | -0.19274 | 194 ft | 18 kts | 317° |
| 2026-05-05 19:54 | 51.15024 | -0.19476 | 193 ft | 19 kts | 260° |
| 2026-05-05 19:54 | 51.14997 | -0.19697 | 193 ft | 20 kts | 255° |
| 2026-05-05 19:54 | 51.14966 | -0.19908 | 195 ft | 19 kts | 257° |
| 2026-05-05 19:54 | 51.14939 | -0.20122 | 196 ft | 20 kts | 258° |
| 2026-05-05 19:55 | 51.14909 | -0.20336 | 197 ft | 19 kts | 256° |
| 2026-05-05 19:55 | 51.14878 | -0.20552 | 196 ft | 20 kts | 258° |
| 2026-05-05 19:55 | 51.14848 | -0.20780 | 196 ft | 21 kts | 258° |
| 2026-05-05 19:55 | 51.14817 | -0.21008 | 199 ft | 20 kts | 256° |
| 2026-05-05 19:56 | 51.14775 | -0.21232 | 199 ft | 21 kts | 254° |
| 2026-05-05 19:56 | 51.14733 | -0.21391 | 202 ft | 7 kts | 203° |
| 2026-05-05 19:56 | 51.14727 | -0.21394 | 202 ft | 0 kts | 190° |
| 2026-05-05 19:57 | 51.14716 | -0.21395 | 202 ft | 0 kts | 176° |
| 2026-05-05 19:59 | 51.14715 | -0.21394 | 202 ft | 1 kts | 175° |
| 2026-05-05 19:59 | 51.14706 | -0.21393 | 202 ft | 0 kts | 174° |
| 2026-05-05 19:59 | 51.14705 | -0.21393 | 202 ft | 3 kts | 174° |
| 2026-05-05 19:59 | 51.14639 | -0.21336 | 202 ft | 12 kts | 161° |
| 2026-05-05 20:00 | 51.14629 | -0.21332 | 202 ft | 0 kts | 167° |
| 2026-05-05 20:00 | 51.14623 | -0.21330 | 202 ft | 4 kts | 167° |
| 2026-05-05 20:00 | 51.14563 | -0.21293 | 202 ft | 17 kts | 146° |
| 2026-05-05 20:00 | 51.14531 | -0.21108 | 199 ft | 21 kts | 80° |
| 2026-05-05 20:01 | 51.14617 | -0.20495 | 196 ft | 101 kts | 78° |
| 2026-05-05 20:01 | 51.14806 | -0.18996 | 259 ft | 167 kts | 74° |
| 2026-05-05 20:01 | 51.15023 | -0.17221 | 1180 ft | 164 kts | 75° |
| 2026-05-05 20:01 | 51.15279 | -0.15424 | 2205 ft | 179 kts | 75° |
| 2026-05-05 20:02 | 51.15551 | -0.13429 | 3065 ft | 193 kts | 73° |
| 2026-05-05 20:02 | 51.15866 | -0.11264 | 3702 ft | 213 kts | 75° |
| 2026-05-05 20:02 | 51.16219 | -0.08845 | 4237 ft | 237 kts | 72° |
| 2026-05-05 20:02 | 51.16867 | -0.06281 | 4568 ft | 257 kts | 58° |
| 2026-05-05 20:03 | 51.17886 | -0.03954 | 4627 ft | 260 kts | 51° |
| 2026-05-05 20:03 | 51.19002 | -0.01679 | 4634 ft | 259 kts | 50° |
| 2026-05-05 20:03 | 51.20121 | 0.00584 | 4637 ft | 260 kts | 50° |
| 2026-05-05 20:03 | 51.21228 | 0.02843 | 4638 ft | 260 kts | 51° |
| 2026-05-05 20:04 | 51.22344 | 0.05141 | 4639 ft | 260 kts | 51° |
| 2026-05-05 20:04 | 51.23441 | 0.07410 | 4639 ft | 260 kts | 51° |
| 2026-05-05 20:04 | 51.24494 | 0.09721 | 4635 ft | 261 kts | 57° |
| 2026-05-05 20:04 | 51.25213 | 0.12442 | 4825 ft | 271 kts | 73° |
| 2026-05-05 20:05 | 51.25606 | 0.15391 | 5798 ft | 275 kts | 77° |
| 2026-05-05 20:05 | 51.25944 | 0.18319 | 6940 ft | 274 kts | 77° |
| 2026-05-05 20:05 | 51.26284 | 0.21287 | 7906 ft | 278 kts | 77° |
| 2026-05-05 20:05 | 51.26639 | 0.24350 | 8837 ft | 283 kts | 77° |
| 2026-05-05 20:06 | 51.26996 | 0.27407 | 9730 ft | 288 kts | 77° |
| 2026-05-05 20:06 | 51.27377 | 0.30560 | 10614 ft | 291 kts | 75° |
| 2026-05-05 20:06 | 51.28202 | 0.33472 | 11426 ft | 294 kts | 52° |
| 2026-05-05 20:06 | 51.29750 | 0.35594 | 12133 ft | 301 kts | 26° |
| 2026-05-05 20:07 | 51.31741 | 0.36415 | 12894 ft | 305 kts | 1° |
| 2026-05-05 20:07 | 51.33806 | 0.35726 | 13684 ft | 311 kts | 335° |
| 2026-05-05 20:07 | 51.35429 | 0.33780 | 14434 ft | 315 kts | 315° |
| 2026-05-05 20:07 | 51.36943 | 0.31260 | 15219 ft | 318 kts | 314° |
| 2026-05-05 20:08 | 51.38479 | 0.28676 | 15961 ft | 323 kts | 314° |
| 2026-05-05 20:08 | 51.40028 | 0.26078 | 16694 ft | 326 kts | 314° |
| 2026-05-05 20:08 | 51.41582 | 0.23482 | 17402 ft | 330 kts | 315° |
| 2026-05-05 20:08 | 51.43187 | 0.20808 | 18107 ft | 333 kts | 315° |
| 2026-05-05 20:09 | 51.44792 | 0.18136 | 18786 ft | 336 kts | 315° |
| 2026-05-05 20:09 | 51.46417 | 0.15433 | 19308 ft | 339 kts | 314° |
| 2026-05-05 20:09 | 51.48045 | 0.12727 | 19553 ft | 340 kts | 315° |
| 2026-05-05 20:09 | 51.49691 | 0.09983 | 19570 ft | 340 kts | 315° |
| 2026-05-05 20:10 | 51.51324 | 0.07261 | 19573 ft | 339 kts | 315° |
| 2026-05-05 20:10 | 51.52954 | 0.04542 | 19579 ft | 339 kts | 315° |
| 2026-05-05 20:10 | 51.54587 | 0.01816 | 19577 ft | 340 kts | 315° |
| 2026-05-05 20:10 | 51.56211 | -0.00899 | 19579 ft | 339 kts | 315° |
| 2026-05-05 20:11 | 51.57836 | -0.03620 | 19578 ft | 339 kts | 315° |
| 2026-05-05 20:11 | 51.59481 | -0.06374 | 19579 ft | 339 kts | 315° |
| 2026-05-05 20:11 | 51.61105 | -0.09098 | 19580 ft | 339 kts | 315° |
| 2026-05-05 20:11 | 51.62746 | -0.11855 | 19579 ft | 340 kts | 315° |
| 2026-05-05 20:12 | 51.64364 | -0.14575 | 19578 ft | 340 kts | 315° |
| 2026-05-05 20:12 | 51.65997 | -0.17327 | 19579 ft | 339 kts | 315° |
| 2026-05-05 20:12 | 51.67617 | -0.20056 | 19581 ft | 339 kts | 315° |
| 2026-05-05 20:12 | 51.69249 | -0.22809 | 19580 ft | 339 kts | 315° |
| 2026-05-05 20:13 | 51.70863 | -0.25535 | 19579 ft | 338 kts | 314° |
| 2026-05-05 20:13 | 51.72478 | -0.28295 | 19577 ft | 334 kts | 315° |
| 2026-05-05 20:13 | 51.74044 | -0.30943 | 19576 ft | 327 kts | 315° |
| 2026-05-05 20:13 | 51.75607 | -0.33595 | 19575 ft | 323 kts | 315° |
| 2026-05-05 20:14 | 51.77161 | -0.36236 | 19580 ft | 325 kts | 316° |
| 2026-05-05 20:14 | 51.78728 | -0.38896 | 19582 ft | 328 kts | 317° |
| 2026-05-05 20:14 | 51.80382 | -0.41390 | 19583 ft | 329 kts | 322° |
| 2026-05-05 20:14 | 51.82206 | -0.43568 | 19582 ft | 329 kts | 329° |
| 2026-05-05 20:15 | 51.84166 | -0.45526 | 19580 ft | 330 kts | 331° |
| 2026-05-05 20:15 | 51.86144 | -0.47424 | 19581 ft | 332 kts | 332° |
| 2026-05-05 20:15 | 51.88100 | -0.49279 | 19488 ft | 319 kts | 331° |
| 2026-05-05 20:15 | 51.89958 | -0.51059 | 19234 ft | 310 kts | 331° |
| 2026-05-05 20:16 | 51.91787 | -0.52843 | 18976 ft | 302 kts | 329° |
| 2026-05-05 20:16 | 51.93553 | -0.54580 | 18725 ft | 297 kts | 330° |
| 2026-05-05 20:16 | 51.95316 | -0.56340 | 18470 ft | 294 kts | 327° |
| 2026-05-05 20:16 | 51.96753 | -0.58684 | 18222 ft | 302 kts | 306° |
| 2026-05-05 20:17 | 51.97834 | -0.61604 | 17959 ft | 302 kts | 301° |
| 2026-05-05 20:17 | 51.98832 | -0.64589 | 17252 ft | 310 kts | 301° |
| 2026-05-05 20:17 | 51.99857 | -0.67720 | 16600 ft | 314 kts | 299° |
| 2026-05-05 20:17 | 52.00866 | -0.70814 | 16117 ft | 312 kts | 299° |
| 2026-05-05 20:18 | 52.01869 | -0.73896 | 15654 ft | 310 kts | 299° |
| 2026-05-05 20:18 | 52.02874 | -0.76986 | 15181 ft | 307 kts | 299° |
| 2026-05-05 20:18 | 52.03867 | -0.80039 | 14710 ft | 305 kts | 299° |
| 2026-05-05 20:18 | 52.04841 | -0.83032 | 14248 ft | 303 kts | 299° |
| 2026-05-05 20:19 | 52.05819 | -0.86039 | 13783 ft | 301 kts | 299° |
| 2026-05-05 20:19 | 52.06795 | -0.89043 | 13319 ft | 299 kts | 299° |
| 2026-05-05 20:19 | 52.07762 | -0.92028 | 12865 ft | 297 kts | 299° |
| 2026-05-05 20:19 | 52.08703 | -0.94935 | 12422 ft | 294 kts | 299° |
| 2026-05-05 20:20 | 52.09647 | -0.97859 | 11974 ft | 292 kts | 299° |
| 2026-05-05 20:20 | 52.10594 | -1.00780 | 11525 ft | 290 kts | 300° |
| 2026-05-05 20:20 | 52.11537 | -1.03656 | 11083 ft | 288 kts | 300° |
| 2026-05-05 20:20 | 52.12463 | -1.06477 | 10647 ft | 285 kts | 300° |
| 2026-05-05 20:21 | 52.13392 | -1.09308 | 10209 ft | 283 kts | 300° |
| 2026-05-05 20:21 | 52.14314 | -1.12123 | 9772 ft | 281 kts | 300° |
| 2026-05-05 20:21 | 52.15229 | -1.14922 | 9332 ft | 279 kts | 300° |
| 2026-05-05 20:21 | 52.16125 | -1.17673 | 8894 ft | 277 kts | 300° |
| 2026-05-05 20:22 | 52.17021 | -1.20436 | 8452 ft | 275 kts | 300° |
| 2026-05-05 20:22 | 52.17915 | -1.23209 | 8008 ft | 274 kts | 300° |
| 2026-05-05 20:22 | 52.18783 | -1.25907 | 7576 ft | 272 kts | 300° |
| 2026-05-05 20:22 | 52.19653 | -1.28626 | 7138 ft | 270 kts | 300° |
| 2026-05-05 20:23 | 52.20516 | -1.31335 | 6703 ft | 269 kts | 300° |
| 2026-05-05 20:23 | 52.21373 | -1.34031 | 6266 ft | 267 kts | 300° |
| 2026-05-05 20:23 | 52.22219 | -1.36705 | 5835 ft | 266 kts | 300° |
| 2026-05-05 20:23 | 52.23058 | -1.39367 | 5407 ft | 264 kts | 300° |
| 2026-05-05 20:24 | 52.23883 | -1.41999 | 4995 ft | 262 kts | 300° |
| 2026-05-05 20:24 | 52.24702 | -1.44625 | 4619 ft | 259 kts | 300° |
| 2026-05-05 20:24 | 52.25508 | -1.47222 | 4243 ft | 256 kts | 300° |
| 2026-05-05 20:24 | 52.26296 | -1.49775 | 3867 ft | 253 kts | 300° |
| 2026-05-05 20:25 | 52.27080 | -1.52340 | 3501 ft | 250 kts | 300° |
| 2026-05-05 20:25 | 52.27832 | -1.54827 | 3249 ft | 244 kts | 300° |
| 2026-05-05 20:25 | 52.28122 | -1.55778 | 3160 ft | 242 kts | 301° |
| 2026-05-05 20:25 | 52.29103 | -1.57889 | 2893 ft | 233 kts | 322° |
| 2026-05-05 20:26 | 52.30468 | -1.59187 | 2641 ft | 225 kts | 340° |
| 2026-05-05 20:26 | 52.31882 | -1.60187 | 2405 ft | 217 kts | 336° |
| 2026-05-05 20:26 | 52.33163 | -1.61330 | 2364 ft | 198 kts | 330° |
| 2026-05-05 20:26 | 52.34055 | -1.62224 | 2360 ft | 177 kts | 329° |
| 2026-05-05 20:27 | 52.34755 | -1.62978 | 2410 ft | 153 kts | 328° |
| 2026-05-05 20:27 | 52.35575 | -1.63983 | 2445 ft | 144 kts | 321° |
| 2026-05-05 20:27 | 52.36357 | -1.64921 | 2312 ft | 132 kts | 330° |
| 2026-05-05 20:27 | 52.37112 | -1.65635 | 2092 ft | 118 kts | 332° |
| 2026-05-05 20:28 | 52.37764 | -1.66354 | 1890 ft | 115 kts | 312° |
| 2026-05-05 20:28 | 52.37908 | -1.67199 | 1578 ft | 147 kts | 221° |